Latest Coastal Weather Observations for Minlaton Airport

IDS60701

Issued at 5:11 pm CST Sunday 29 May 2016 (issued every 10 minutes, with the page automatically refreshed every 10 minutes)

About coastal observations | Map of coastal stations | Coastal observations for SA | Marine services | Other Formats
Station Details ID: 022031 Name: MINLATON AERO Lat: -34.75 Lon: 137.53 Height: 32.0 m
Data from the previous 72 hours. | See also: Recent months at Minlaton Airport
Date/Time
CST
Temp

°C
Wind Pressure Rain
since 9am
mm
Weather Cloud Vis
km
Sea
Height
m
Swell
Dir
 
Speed
knots
Gust
knots
hPa Trend Height
m
Period
s
Dir
29/05:00pm 14.9 N 10 12 1016.3 - 0.0 - - - - - - -
29/04:30pm 16.4 N 12 16 1016.0 - 0.0 - - - - - - -
29/04:00pm 17.2 N 11 13 1016.0 - 0.0 - - - - - - -
29/03:30pm 17.3 NNW 13 15 1016.1 - 0.0 - - - - - - -
29/03:00pm 17.5 N 13 16 1016.1 - 0.0 - - - - - - -
29/02:30pm 17.7 N 15 19 1016.2 - 0.0 - - - - - - -
29/02:00pm 17.5 NNW 15 19 1016.4 - 0.0 - - - - - - -
29/01:30pm 18.1 N 15 19 1016.5 - 0.0 - - - - - - -
29/01:00pm 16.3 N 13 16 1016.9 - 0.0 - - - - - - -
29/12:30pm 16.3 N 14 18 1017.3 - 0.0 - - - - - - -
29/12:00pm 16.1 N 15 19 1017.6 - 0.0 - - - - - - -
29/11:30am 16.1 N 15 19 1017.9 - 0.0 - - - - - - -
29/11:00am 15.7 N 14 17 1018.1 - 0.0 - - - - - - -
29/10:30am 14.7 NNE 14 19 1018.4 - 0.0 - - - - - - -
29/10:00am 14.2 NNE 13 16 1018.2 - 0.0 - - - - - - -
29/09:30am 13.1 NE 11 14 1018.3 - 0.0 - - - - - - -
29/09:00am 12.2 NE 10 13 1018.3 - 0.0 - - - - - - -
29/08:30am 11.2 NE 11 13 1018.3 - 0.0 - - - - - - -
29/08:00am 10.5 NE 10 13 1018.2 - 0.0 - - - - - - -
29/07:30am 10.1 NE 10 12 1017.8 - 0.0 - - - - - - -
29/07:00am 10.3 NE 10 12 1017.9 - 0.0 - - - - - - -
29/06:30am 10.0 NE 11 13 1017.7 - 0.0 - - - - - - -
29/06:00am 9.9 NNE 9 11 1017.8 - 0.0 - - - - - - -
29/05:30am 9.8 NE 11 13 1017.6 - 0.0 - - - - - - -
29/05:00am 9.5 NE 13 15 1017.3 - 0.0 - - - - - - -
29/04:30am 9.9 ENE 11 14 1017.4 - 0.0 - - - - - - -
29/04:00am 9.8 NE 10 12 1017.5 - 0.0 - - - - - - -
29/03:30am 9.7 NE 7 9 1017.8 - 0.0 - - - - - - -
29/03:00am 9.5 NE 9 10 1017.6 - 0.0 - - - - - - -
29/02:30am 8.6 NE 9 11 1017.9 - 0.0 - - - - - - -
29/02:00am 8.2 ENE 8 9 1017.8 - 0.0 - - - - - - -
29/01:30am 7.9 ENE 7 8 1017.8 - 0.0 - - - - - - -
29/01:00am 8.4 ENE 9 9 1017.8 - 0.0 - - - - - - -
29/12:30am 8.5 ENE 8 9 1017.9 - 0.0 - - - - - - -
29/12:00am 9.0 ENE 7 8 1018.2 - 0.0 - - - - - - -
 
Date/Time
CST
Temp

°C
Wind Pressure Rain
since 9am
mm
Weather Cloud Vis
km
Sea
Height
m
Swell
Dir
 
Speed
knots
Gust
knots
hPa Trend Height
m
Period
s
Dir
28/11:30pm 9.4 ENE 10 11 1018.4 - 0.0 - - - - - - -
28/11:00pm 9.6 E 9 10 1018.3 - 0.0 - - - - - - -
28/10:30pm 10.0 ENE 9 10 1018.4 - 0.0 - - - - - - -
28/10:00pm 11.0 ENE 7 8 1018.6 - 0.0 - - - - - - -
28/09:30pm 11.5 SE 5 5 1018.7 - 0.0 - - - - - - -
28/09:00pm 11.6 SSE 1 4 1018.7 - 0.0 - - - - - - -
28/08:30pm 11.6 CALM 0 0 1018.7 - 0.0 - - - - - - -
28/08:00pm 12.5 CALM 0 0 1018.8 - 0.0 - - - - - - -
28/07:30pm 12.7 WSW 3 4 1018.8 - 0.0 - - - - - - -
28/07:00pm 12.1 WSW 4 6 1018.6 - 0.0 - - - - - - -
28/06:30pm 12.3 SSE 5 6 1018.3 - 0.0 - - - - - - -
28/06:00pm 12.4 SSE 6 6 1018.0 - 0.0 - - - - - - -
28/05:30pm 12.6 SSE 6 6 1017.7 - 0.0 - - - - - - -
28/05:00pm 13.6 SSE 4 6 1017.5 - 0.0 - - - - - - -
28/04:30pm 14.4 SE 2 3 1017.5 - 0.0 - - - - - - -
28/04:00pm 15.2 SE 7 8 1017.5 - 0.0 - - - - - - -
28/03:30pm 14.6 SSE 9 11 1017.4 - 0.0 - - - - - - -
28/03:00pm 15.8 SSE 11 13 1017.0 - 0.0 - - - - - - -
28/02:30pm 15.2 S 12 14 1016.9 - 0.0 - - - - - - -
28/02:00pm 14.2 SSE 11 13 1016.8 - 0.0 - - - - - - -
28/01:30pm 14.9 S 11 16 1016.8 - 0.0 - - - - - - -
28/01:00pm 16.3 S 8 11 1016.9 - 0.0 - - - - - - -
28/12:30pm 15.3 SSW 6 9 1017.0 - 0.0 - - - - - - -
28/12:00pm 14.4 S 7 9 1017.2 - 0.0 - - - - - - -
28/11:30am 14.6 SSW 9 11 1017.4 - 0.0 - - - - - - -
28/11:00am 14.2 SW 10 12 1017.6 - 0.0 - - - - - - -
28/10:30am 14.8 SSE 8 11 1017.7 - 0.0 - - - - - - -
28/10:00am 14.6 S 10 14 1017.5 - 0.0 - - - - - - -
28/09:30am 13.5 S 7 9 1017.2 - 0.0 - - - - - - -
28/09:00am 13.0 SSE 8 10 1016.6 - 6.2 - - - - - - -
28/08:30am 11.6 S 9 11 1016.2 - 6.2 - - - - - - -
28/08:00am 11.3 S 10 12 1015.9 - 6.2 - - - - - - -
28/07:30am 10.8 SSW 9 11 1015.6 - 6.2 - - - - - - -
28/07:00am 10.6 SSW 9 11 1014.9 - 6.2 - - - - - - -
28/06:30am 10.8 SSW 10 11 1014.4 - 6.0 - - - - - - -
28/06:00am 10.5 SSW 9 11 1014.1 - 6.0 - - - - - - -
28/05:30am 9.7 SSW 10 12 1013.2 - 6.0 - - - - - - -
28/05:00am 9.7 S 11 13 1012.8 - 6.0 - - - - - - -
28/04:30am 9.5 S 8 10 1012.6 - 6.0 - - - - - - -
28/04:00am 9.1 SSW 8 9 1012.5 - 6.0 - - - - - - -
28/03:30am 9.9 SSW 9 11 1012.1 - 6.0 - - - - - - -
28/03:00am 9.3 SSW 8 9 1011.9 - 6.0 Recent precip. - - - - - -
28/02:30am 8.8 S 6 7 1011.7 - 6.0 - - - - - - -
28/02:00am 9.0 SSW 7 8 1011.4 - 5.8 - - - - - - -
28/01:30am 9.0 S 6 7 1011.0 - 5.8 - - - - - - -
28/01:00am 10.1 S 7 8 1010.6 - 5.8 - - - - - - -
28/12:30am 11.4 SSW 6 8 1010.4 - 5.8 - - - - - - -
28/12:00am 12.8 WSW 15 17 1010.3 - 5.8 - - - - - - -
 
Date/Time
CST
Temp

°C
Wind Pressure Rain
since 9am
mm
Weather Cloud Vis
km
Sea
Height
m
Swell
Dir
 
Speed
knots
Gust
knots
hPa Trend Height
m
Period
s
Dir
27/11:30pm 12.0 W 11 15 1010.5 - 5.8 - - - - - - -
27/11:00pm 11.9 WSW 20 26 1010.4 - 5.8 - - - - - - -
27/10:55pm 12.0 W 18 26 1010.5 - 5.8 - - - - - - -
27/10:30pm 10.6 W 12 16 1010.7 - 5.6 - - - - - - -
27/10:08pm 11.1 WSW 25 35 1011.1 - 5.2 - - - - - - -
27/10:00pm 11.2 SW 26 35 1010.9 - 5.2 - - - - - - -
27/09:55pm 13.2 WSW 21 31 1010.7 - 5.0 - - - - - - -
27/09:30pm 12.4 WSW 18 24 1010.7 - 5.0 - - - - - - -
27/09:00pm 11.9 SW 16 21 1010.8 - 5.0 - - - - - - -
27/08:30pm 12.1 SW 17 21 1010.6 - 5.0 - - - - - - -
27/08:00pm 12.1 WSW 17 23 1010.3 - 5.0 - - - - - - -
27/07:30pm 11.4 SW 14 18 1010.0 - 5.0 - - - - - - -
27/07:00pm 11.0 SW 11 13 1009.8 - 5.0 - - - - - - -
27/06:30pm 11.5 WSW 14 17 1009.5 - 4.8 - - - - - - -
27/06:00pm 10.8 SW 15 18 1009.2 - 4.8 Recent precip. - - - - - -
27/05:30pm 11.3 SW 17 23 1009.0 - 4.6 - - - - - - -
27/05:00pm 11.5 SW 22 27 1008.6 - 4.6 - - - - - - -
27/04:38pm 11.4 WSW 19 29 1008.0 - 4.6 - - - - - - -
27/04:30pm 11.0 WSW 20 25 1008.2 - 4.6 - - - - - - -
27/04:16pm 11.6 WSW 22 33 1007.8 - 4.4 - - - - - - -
27/04:00pm 12.8 WSW 23 28 1007.6 - 4.4 - - - - - - -
27/03:30pm 12.4 WSW 19 27 1007.3 - 4.4 - - - - - - -
27/03:00pm 10.3 WSW 27 44 1007.4 - 4.4 Rain - - - - - -
27/02:30pm 13.5 WSW 27 37 1006.9 - 3.4 - - - - - - -
27/02:26pm 13.7 WSW 26 37 1006.7 - 3.4 - - - - - - -
27/02:00pm 13.4 WSW 19 25 1006.8 - 3.4 - - - - - - -
27/01:44pm 12.6 WSW 23 33 1006.8 - 3.4 - - - - - - -
27/01:31pm 13.5 W 20 30 1006.9 - 3.4 - - - - - - -
27/01:30pm 13.7 W 20 24 1006.8 - 3.4 - - - - - - -
27/01:00pm 12.2 WSW 16 22 1007.3 - 3.4 - - - - - - -
27/12:35pm 11.6 SW 15 25 1007.6 - 3.4 - - - - - - -
27/12:30pm 11.1 SW 18 25 1007.7 - 3.4 - - - - - - -
27/12:10pm 11.2 WSW 19 30 1008.0 - 3.4 - - - - - - -
27/12:00pm 11.1 WSW 22 27 1008.1 - 3.0 Recent precip. - - - - - -
27/11:44am 11.1 WSW 27 37 1008.1 - 3.0 - - - - - - -
27/11:30am 10.4 WSW 29 38 1007.9 - 2.8 - - - - - - -
27/11:24am 10.6 W 26 38 1007.7 - 1.8 - - - - - - -
27/11:22am 13.0 W 24 34 1007.9 - 1.0 - - - - - - -
27/11:00am 13.8 W 18 24 1008.2 - 0.8 - - - - - - -
27/10:30am 12.3 W 19 25 1008.7 - 0.8 - - - - - - -
27/10:20am 12.0 W 24 35 1008.7 - 0.8 - - - - - - -
27/10:15am 12.7 WNW 24 35 1008.6 - 0.0 - - - - - - -
27/10:13am 14.2 WNW 22 33 1008.7 - 0.0 - - - - - - -
27/10:00am 16.5 WNW 22 27 1008.2 - 0.0 - - - - - - -
27/09:30am 15.3 WNW 21 27 1008.3 - 0.0 - - - - - - -
27/09:00am 15.2 WNW 20 27 1008.4 - 2.6 - - - - - - -
27/08:30am 14.6 WNW 19 24 1008.5 - 2.6 - - - - - - -
27/08:00am 14.1 W 19 25 1008.5 - 2.6 - - - - - - -
27/07:30am 13.8 W 18 24 1008.7 - 2.6 - - - - - - -
27/07:00am 13.2 W 19 25 1008.8 - 2.6 - - - - - - -
27/06:30am 12.3 W 17 23 1008.8 - 2.6 - - - - - - -
27/06:00am 14.1 WNW 21 27 1008.7 - 0.8 - - - - - - -
27/05:30am 13.8 WNW 20 25 1008.8 - 0.8 - - - - - - -
27/05:00am 13.5 WNW 22 28 1008.9 - 0.8 - - - - - - -
27/04:31am 12.7 WNW 25 35 1009.0 - 0.8 - - - - - - -
27/04:30am 12.7 WNW 26 35 1009.0 - 0.8 - - - - - - -
27/04:21am 14.4 WNW 23 34 1008.8 - 0.4 - - - - - - -
27/04:00am 14.6 NW 18 22 1009.1 - 0.4 - - - - - - -
27/03:30am 14.3 NW 18 23 1009.3 - 0.4 - - - - - - -
27/03:00am 14.5 NW 19 24 1009.6 - 0.4 - - - - - - -
27/02:30am 14.3 NW 18 23 1009.8 - 0.4 - - - - - - -
27/02:00am 14.3 NW 16 19 1010.0 - 0.4 - - - - - - -
27/01:30am 14.1 NW 15 19 1010.4 - 0.4 - - - - - - -
27/01:00am 13.7 WNW 14 17 1010.5 - 0.4 - - - - - - -
27/12:30am 13.2 NW 13 16 1010.8 - 0.4 - - - - - - -
27/12:00am 11.7 N 8 9 1011.0 - 0.4 - - - - - - -
 
Date/Time
CST
Temp

°C
Wind Pressure Rain
since 9am
mm
Weather Cloud Vis
km
Sea
Height
m
Swell
Dir
 
Speed
knots
Gust
knots
hPa Trend Height
m
Period
s
Dir
26/11:30pm 10.5 NNE 8 9 1011.3 - 0.4 - - - - - - -
26/11:00pm 10.3 NNE 7 8 1011.4 - 0.4 - - - - - - -
26/10:30pm 10.1 NNE 8 9 1011.8 - 0.4 - - - - - - -
26/10:00pm 11.0 NNW 4 5 1011.9 - 0.4 - - - - - - -
26/09:30pm 12.1 NW 7 8 1012.1 - 0.4 - - - - - - -
26/09:00pm 12.5 WNW 10 13 1012.2 - 0.4 Recent precip. - - - - - -
26/08:30pm 13.2 WNW 15 22 1012.2 - 0.4 - - - - - - -
26/08:17pm 13.5 WNW 13 19 1012.3 - 0.0 - - - - - - -
26/08:00pm 12.7 W 8 8 1012.2 - 0.0 - - - - - - -
26/07:30pm 12.5 W 8 9 1011.8 - 0.0 - - - - - - -
26/07:00pm 12.8 W 8 9 1011.7 - 0.0 - - - - - - -
26/06:30pm 13.3 W 9 11 1011.6 - 0.0 - - - - - - -
26/06:00pm 13.4 W 9 10 1011.2 - 0.0 - - - - - - -
26/05:30pm 13.5 W 8 9 1010.8 - 0.0 - - - - - - -

Other Formats:

Comma delimited format used in spreadsheet applications
http://www.bom.gov.au/fwo/IDS60701/IDS60701.95659.axf

JavaScript Object Notation format (JSON) in row-major order
http://www.bom.gov.au/fwo/IDS60701/IDS60701.95659.json